sensor_id;sensor_type;location;lat;lon;timestamp;P1;durP1;ratioP1;P2;durP2;ratioP2
52866;SDS011;38739;53.324;6.862;2023-07-16T00:00:28;9.57;;;2.60;;
52866;SDS011;38739;53.324;6.862;2023-07-16T00:02:54;11.98;;;3.00;;
52866;SDS011;38739;53.324;6.862;2023-07-16T00:05:20;11.35;;;2.80;;
52866;SDS011;38739;53.324;6.862;2023-07-16T00:07:46;9.93;;;2.35;;
52866;SDS011;38739;53.324;6.862;2023-07-16T00:10:12;9.25;;;2.50;;
52866;SDS011;38739;53.324;6.862;2023-07-16T00:12:38;9.35;;;2.60;;
52866;SDS011;38739;53.324;6.862;2023-07-16T00:15:03;6.32;;;2.42;;
52866;SDS011;38739;53.324;6.862;2023-07-16T00:17:31;7.45;;;2.30;;
52866;SDS011;38739;53.324;6.862;2023-07-16T00:19:57;7.35;;;2.35;;
52866;SDS011;38739;53.324;6.862;2023-07-16T00:22:23;8.18;;;2.40;;
52866;SDS011;38739;53.324;6.862;2023-07-16T00:24:49;8.82;;;2.60;;
52866;SDS011;38739;53.324;6.862;2023-07-16T00:27:14;8.75;;;2.40;;
52866;SDS011;38739;53.324;6.862;2023-07-16T00:29:43;9.50;;;2.78;;
52866;SDS011;38739;53.324;6.862;2023-07-16T00:32:09;11.35;;;2.90;;
52866;SDS011;38739;53.324;6.862;2023-07-16T00:34:34;6.13;;;2.53;;
52866;SDS011;38739;53.324;6.862;2023-07-16T00:37:00;8.20;;;2.70;;
52866;SDS011;38739;53.324;6.862;2023-07-16T00:39:31;9.35;;;2.67;;
52866;SDS011;38739;53.324;6.862;2023-07-16T00:41:56;10.75;;;2.53;;
52866;SDS011;38739;53.324;6.862;2023-07-16T00:44:22;9.48;;;2.75;;
52866;SDS011;38739;53.324;6.862;2023-07-16T00:46:48;8.80;;;2.63;;
52866;SDS011;38739;53.324;6.862;2023-07-16T00:49:14;9.25;;;2.88;;
52866;SDS011;38739;53.324;6.862;2023-07-16T00:51:41;12.40;;;3.45;;
52866;SDS011;38739;53.324;6.862;2023-07-16T00:54:07;10.77;;;3.03;;
52866;SDS011;38739;53.324;6.862;2023-07-16T00:56:33;12.55;;;2.83;;
52866;SDS011;38739;53.324;6.862;2023-07-16T00:59:00;10.13;;;3.10;;
52866;SDS011;38739;53.324;6.862;2023-07-16T01:01:25;10.30;;;2.80;;
52866;SDS011;38739;53.324;6.862;2023-07-16T01:03:51;9.30;;;2.75;;
52866;SDS011;38739;53.324;6.862;2023-07-16T01:06:31;11.68;;;3.35;;
52866;SDS011;38739;53.324;6.862;2023-07-16T01:09:03;13.00;;;3.33;;
52866;SDS011;38739;53.324;6.862;2023-07-16T01:11:39;9.02;;;2.53;;
52866;SDS011;38739;53.324;6.862;2023-07-16T01:14:06;10.38;;;3.25;;
52866;SDS011;38739;53.324;6.862;2023-07-16T01:16:33;8.48;;;2.67;;
52866;SDS011;38739;53.324;6.862;2023-07-16T01:18:59;10.52;;;3.00;;
52866;SDS011;38739;53.324;6.862;2023-07-16T01:21:24;10.90;;;2.88;;
52866;SDS011;38739;53.324;6.862;2023-07-16T01:29:31;12.65;;;3.42;;
52866;SDS011;38739;53.324;6.862;2023-07-16T01:32:05;11.38;;;3.83;;
52866;SDS011;38739;53.324;6.862;2023-07-16T01:34:34;9.95;;;3.40;;
52866;SDS011;38739;53.324;6.862;2023-07-16T01:37:01;14.82;;;3.97;;
52866;SDS011;38739;53.324;6.862;2023-07-16T01:39:28;12.90;;;3.88;;
52866;SDS011;38739;53.324;6.862;2023-07-16T01:41:54;9.48;;;3.38;;
52866;SDS011;38739;53.324;6.862;2023-07-16T01:44:20;11.60;;;3.30;;
52866;SDS011;38739;53.324;6.862;2023-07-16T01:46:47;10.32;;;3.30;;
52866;SDS011;38739;53.324;6.862;2023-07-16T01:49:32;11.38;;;3.45;;
52866;SDS011;38739;53.324;6.862;2023-07-16T01:51:59;9.25;;;3.15;;
52866;SDS011;38739;53.324;6.862;2023-07-16T01:54:25;7.93;;;3.17;;
52866;SDS011;38739;53.324;6.862;2023-07-16T01:56:51;11.40;;;3.20;;
52866;SDS011;38739;53.324;6.862;2023-07-16T01:59:17;10.80;;;3.35;;
52866;SDS011;38739;53.324;6.862;2023-07-16T02:01:42;8.13;;;2.55;;
52866;SDS011;38739;53.324;6.862;2023-07-16T02:04:08;9.40;;;2.67;;
52866;SDS011;38739;53.324;6.862;2023-07-16T02:06:34;11.02;;;2.80;;
52866;SDS011;38739;53.324;6.862;2023-07-16T02:08:59;11.23;;;3.00;;
52866;SDS011;38739;53.324;6.862;2023-07-16T02:11:25;10.23;;;3.05;;
52866;SDS011;38739;53.324;6.862;2023-07-16T02:13:51;9.80;;;2.75;;
52866;SDS011;38739;53.324;6.862;2023-07-16T02:16:16;7.63;;;2.47;;
52866;SDS011;38739;53.324;6.862;2023-07-16T02:18:42;10.38;;;2.63;;
52866;SDS011;38739;53.324;6.862;2023-07-16T02:21:07;14.07;;;3.10;;
52866;SDS011;38739;53.324;6.862;2023-07-16T02:23:33;7.40;;;2.63;;
52866;SDS011;38739;53.324;6.862;2023-07-16T02:25:59;13.23;;;3.50;;
52866;SDS011;38739;53.324;6.862;2023-07-16T02:28:25;7.05;;;2.70;;
52866;SDS011;38739;53.324;6.862;2023-07-16T02:30:51;10.63;;;3.15;;
52866;SDS011;38739;53.324;6.862;2023-07-16T02:33:17;6.78;;;2.60;;
52866;SDS011;38739;53.324;6.862;2023-07-16T02:35:49;9.43;;;3.30;;
52866;SDS011;38739;53.324;6.862;2023-07-16T02:38:16;12.27;;;3.20;;
52866;SDS011;38739;53.324;6.862;2023-07-16T02:40:46;9.70;;;3.00;;
52866;SDS011;38739;53.324;6.862;2023-07-16T02:43:12;10.52;;;2.90;;
52866;SDS011;38739;53.324;6.862;2023-07-16T02:45:38;13.75;;;3.20;;
52866;SDS011;38739;53.324;6.862;2023-07-16T02:48:04;12.60;;;3.90;;
52866;SDS011;38739;53.324;6.862;2023-07-16T02:50:34;11.68;;;3.40;;
52866;SDS011;38739;53.324;6.862;2023-07-16T02:53:03;11.38;;;3.72;;
52866;SDS011;38739;53.324;6.862;2023-07-16T02:55:31;12.93;;;3.53;;
52866;SDS011;38739;53.324;6.862;2023-07-16T02:57:57;11.05;;;3.60;;
52866;SDS011;38739;53.324;6.862;2023-07-16T03:00:22;12.93;;;4.50;;
52866;SDS011;38739;53.324;6.862;2023-07-16T03:02:48;10.38;;;3.78;;
52866;SDS011;38739;53.324;6.862;2023-07-16T03:05:17;11.75;;;3.78;;
52866;SDS011;38739;53.324;6.862;2023-07-16T03:07:43;12.20;;;3.90;;
52866;SDS011;38739;53.324;6.862;2023-07-16T03:10:09;11.00;;;4.20;;
52866;SDS011;38739;53.324;6.862;2023-07-16T03:12:35;15.00;;;4.55;;
52866;SDS011;38739;53.324;6.862;2023-07-16T03:15:02;12.13;;;4.60;;
52866;SDS011;38739;53.324;6.862;2023-07-16T03:17:28;9.73;;;4.00;;
52866;SDS011;38739;53.324;6.862;2023-07-16T03:19:53;13.15;;;4.68;;
52866;SDS011;38739;53.324;6.862;2023-07-16T03:22:19;11.68;;;4.70;;
52866;SDS011;38739;53.324;6.862;2023-07-16T03:24:45;12.65;;;4.85;;
52866;SDS011;38739;53.324;6.862;2023-07-16T03:27:10;11.30;;;4.40;;
52866;SDS011;38739;53.324;6.862;2023-07-16T03:29:36;10.90;;;4.22;;
52866;SDS011;38739;53.324;6.862;2023-07-16T03:32:02;13.52;;;5.10;;
52866;SDS011;38739;53.324;6.862;2023-07-16T03:34:28;10.02;;;4.25;;
52866;SDS011;38739;53.324;6.862;2023-07-16T03:36:53;13.55;;;4.72;;
52866;SDS011;38739;53.324;6.862;2023-07-16T03:39:19;12.85;;;4.85;;
52866;SDS011;38739;53.324;6.862;2023-07-16T03:41:45;11.02;;;4.28;;
52866;SDS011;38739;53.324;6.862;2023-07-16T03:44:11;11.27;;;4.40;;
52866;SDS011;38739;53.324;6.862;2023-07-16T03:46:36;9.75;;;4.30;;
52866;SDS011;38739;53.324;6.862;2023-07-16T03:49:03;11.23;;;4.68;;
52866;SDS011;38739;53.324;6.862;2023-07-16T03:51:32;12.23;;;4.60;;
52866;SDS011;38739;53.324;6.862;2023-07-16T03:53:58;10.88;;;4.38;;
52866;SDS011;38739;53.324;6.862;2023-07-16T03:56:23;10.73;;;4.43;;
52866;SDS011;38739;53.324;6.862;2023-07-16T03:58:49;10.48;;;4.90;;
52866;SDS011;38739;53.324;6.862;2023-07-16T04:01:15;10.65;;;4.65;;
52866;SDS011;38739;53.324;6.862;2023-07-16T04:03:40;12.98;;;3.97;;
52866;SDS011;38739;53.324;6.862;2023-07-16T04:06:07;11.27;;;4.50;;
52866;SDS011;38739;53.324;6.862;2023-07-16T04:08:37;11.52;;;4.80;;
52866;SDS011;38739;53.324;6.862;2023-07-16T04:11:04;9.30;;;4.43;;
52866;SDS011;38739;53.324;6.862;2023-07-16T04:13:30;11.52;;;4.43;;
52866;SDS011;38739;53.324;6.862;2023-07-16T04:15:56;12.27;;;4.80;;
52866;SDS011;38739;53.324;6.862;2023-07-16T04:18:23;17.75;;;4.70;;
52866;SDS011;38739;53.324;6.862;2023-07-16T04:20:52;12.75;;;4.45;;
52866;SDS011;38739;53.324;6.862;2023-07-16T04:23:18;11.75;;;4.63;;
52866;SDS011;38739;53.324;6.862;2023-07-16T04:25:45;11.23;;;4.97;;
52866;SDS011;38739;53.324;6.862;2023-07-16T04:28:11;11.07;;;4.45;;
52866;SDS011;38739;53.324;6.862;2023-07-16T04:30:37;12.32;;;4.90;;
52866;SDS011;38739;53.324;6.862;2023-07-16T04:33:03;14.80;;;5.03;;
52866;SDS011;38739;53.324;6.862;2023-07-16T04:35:30;13.70;;;5.00;;
52866;SDS011;38739;53.324;6.862;2023-07-16T04:37:55;14.95;;;5.07;;
52866;SDS011;38739;53.324;6.862;2023-07-16T04:40:21;15.15;;;5.15;;
52866;SDS011;38739;53.324;6.862;2023-07-16T04:42:47;13.07;;;4.93;;
52866;SDS011;38739;53.324;6.862;2023-07-16T04:45:13;13.25;;;5.03;;
52866;SDS011;38739;53.324;6.862;2023-07-16T04:47:38;11.82;;;4.85;;
52866;SDS011;38739;53.324;6.862;2023-07-16T04:50:04;10.75;;;5.00;;
52866;SDS011;38739;53.324;6.862;2023-07-16T04:52:31;14.25;;;5.45;;
52866;SDS011;38739;53.324;6.862;2023-07-16T04:54:56;11.98;;;5.05;;
52866;SDS011;38739;53.324;6.862;2023-07-16T04:57:22;13.90;;;5.88;;
52866;SDS011;38739;53.324;6.862;2023-07-16T04:59:48;12.15;;;5.05;;
52866;SDS011;38739;53.324;6.862;2023-07-16T05:02:13;12.05;;;5.53;;
52866;SDS011;38739;53.324;6.862;2023-07-16T05:04:42;12.93;;;5.47;;
52866;SDS011;38739;53.324;6.862;2023-07-16T05:07:09;14.18;;;5.55;;
52866;SDS011;38739;53.324;6.862;2023-07-16T05:09:35;11.35;;;5.63;;
52866;SDS011;38739;53.324;6.862;2023-07-16T05:12:01;14.98;;;5.78;;
52866;SDS011;38739;53.324;6.862;2023-07-16T05:14:27;10.43;;;5.20;;
52866;SDS011;38739;53.324;6.862;2023-07-16T05:16:54;11.55;;;5.05;;
52866;SDS011;38739;53.324;6.862;2023-07-16T05:19:20;13.77;;;6.15;;
52866;SDS011;38739;53.324;6.862;2023-07-16T05:21:45;16.13;;;5.72;;
52866;SDS011;38739;53.324;6.862;2023-07-16T05:24:11;13.80;;;5.20;;
52866;SDS011;38739;53.324;6.862;2023-07-16T05:26:37;16.13;;;5.72;;
52866;SDS011;38739;53.324;6.862;2023-07-16T05:29:03;14.95;;;5.47;;
52866;SDS011;38739;53.324;6.862;2023-07-16T05:31:29;15.80;;;5.20;;
52866;SDS011;38739;53.324;6.862;2023-07-16T05:33:55;12.85;;;5.03;;
52866;SDS011;38739;53.324;6.862;2023-07-16T05:36:20;17.75;;;5.43;;
52866;SDS011;38739;53.324;6.862;2023-07-16T05:38:46;19.10;;;5.93;;
52866;SDS011;38739;53.324;6.862;2023-07-16T05:41:12;14.15;;;5.43;;
52866;SDS011;38739;53.324;6.862;2023-07-16T05:43:37;12.50;;;4.80;;
52866;SDS011;38739;53.324;6.862;2023-07-16T05:46:03;9.82;;;4.80;;
52866;SDS011;38739;53.324;6.862;2023-07-16T05:48:30;13.27;;;4.70;;
52866;SDS011;38739;53.324;6.862;2023-07-16T05:50:56;13.57;;;4.95;;
52866;SDS011;38739;53.324;6.862;2023-07-16T05:53:22;11.55;;;4.88;;
52866;SDS011;38739;53.324;6.862;2023-07-16T05:55:47;12.90;;;5.00;;
52866;SDS011;38739;53.324;6.862;2023-07-16T05:58:14;16.20;;;5.65;;
52866;SDS011;38739;53.324;6.862;2023-07-16T06:00:41;11.00;;;4.70;;
52866;SDS011;38739;53.324;6.862;2023-07-16T06:03:07;10.88;;;4.47;;
52866;SDS011;38739;53.324;6.862;2023-07-16T06:05:32;11.68;;;4.50;;
52866;SDS011;38739;53.324;6.862;2023-07-16T06:08:00;14.75;;;4.57;;
52866;SDS011;38739;53.324;6.862;2023-07-16T06:10:26;11.18;;;4.40;;
52866;SDS011;38739;53.324;6.862;2023-07-16T06:12:52;12.02;;;4.65;;
52866;SDS011;38739;53.324;6.862;2023-07-16T06:15:17;11.85;;;4.30;;
52866;SDS011;38739;53.324;6.862;2023-07-16T06:17:43;14.70;;;4.07;;
52866;SDS011;38739;53.324;6.862;2023-07-16T06:20:09;9.82;;;3.83;;
52866;SDS011;38739;53.324;6.862;2023-07-16T06:22:35;12.18;;;4.32;;
52866;SDS011;38739;53.324;6.862;2023-07-16T06:25:01;10.75;;;4.38;;
52866;SDS011;38739;53.324;6.862;2023-07-16T06:27:27;9.35;;;3.97;;
52866;SDS011;38739;53.324;6.862;2023-07-16T06:29:53;12.25;;;3.75;;
52866;SDS011;38739;53.324;6.862;2023-07-16T06:32:19;12.13;;;4.53;;
52866;SDS011;38739;53.324;6.862;2023-07-16T06:34:45;12.13;;;4.32;;
52866;SDS011;38739;53.324;6.862;2023-07-16T06:37:11;10.32;;;4.38;;
52866;SDS011;38739;53.324;6.862;2023-07-16T06:39:36;13.88;;;4.47;;
52866;SDS011;38739;53.324;6.862;2023-07-16T06:42:02;11.95;;;4.22;;
52866;SDS011;38739;53.324;6.862;2023-07-16T06:44:28;14.95;;;4.90;;
52866;SDS011;38739;53.324;6.862;2023-07-16T06:46:56;14.10;;;4.80;;
52866;SDS011;38739;53.324;6.862;2023-07-16T06:49:22;13.35;;;4.15;;
52866;SDS011;38739;53.324;6.862;2023-07-16T06:51:48;10.88;;;4.32;;
52866;SDS011;38739;53.324;6.862;2023-07-16T06:54:14;12.20;;;4.40;;
52866;SDS011;38739;53.324;6.862;2023-07-16T06:56:40;14.07;;;4.45;;
52866;SDS011;38739;53.324;6.862;2023-07-16T06:59:05;12.63;;;4.70;;
52866;SDS011;38739;53.324;6.862;2023-07-16T07:01:31;15.68;;;4.18;;
52866;SDS011;38739;53.324;6.862;2023-07-16T07:03:58;12.65;;;4.30;;
52866;SDS011;38739;53.324;6.862;2023-07-16T07:06:23;11.10;;;4.40;;
52866;SDS011;38739;53.324;6.862;2023-07-16T07:08:49;13.20;;;4.93;;
52866;SDS011;38739;53.324;6.862;2023-07-16T07:11:15;12.55;;;4.68;;
52866;SDS011;38739;53.324;6.862;2023-07-16T07:13:40;11.43;;;4.68;;
52866;SDS011;38739;53.324;6.862;2023-07-16T07:16:07;11.65;;;4.93;;
52866;SDS011;38739;53.324;6.862;2023-07-16T07:18:32;11.73;;;4.80;;
52866;SDS011;38739;53.324;6.862;2023-07-16T07:20:58;10.63;;;4.68;;
52866;SDS011;38739;53.324;6.862;2023-07-16T07:23:24;17.70;;;4.90;;
52866;SDS011;38739;53.324;6.862;2023-07-16T07:25:50;11.90;;;4.53;;
52866;SDS011;38739;53.324;6.862;2023-07-16T07:28:16;11.05;;;4.65;;
52866;SDS011;38739;53.324;6.862;2023-07-16T07:30:43;10.32;;;4.65;;
52866;SDS011;38739;53.324;6.862;2023-07-16T07:33:09;8.65;;;4.53;;
52866;SDS011;38739;53.324;6.862;2023-07-16T07:35:35;12.88;;;4.90;;
52866;SDS011;38739;53.324;6.862;2023-07-16T07:38:01;9.15;;;4.53;;
52866;SDS011;38739;53.324;6.862;2023-07-16T07:40:27;10.20;;;5.18;;
52866;SDS011;38739;53.324;6.862;2023-07-16T07:42:52;9.93;;;4.50;;
52866;SDS011;38739;53.324;6.862;2023-07-16T07:45:18;9.40;;;4.28;;
52866;SDS011;38739;53.324;6.862;2023-07-16T07:47:44;11.63;;;4.68;;
52866;SDS011;38739;53.324;6.862;2023-07-16T07:50:09;11.45;;;4.50;;
52866;SDS011;38739;53.324;6.862;2023-07-16T07:52:35;8.98;;;4.68;;
52866;SDS011;38739;53.324;6.862;2023-07-16T07:55:01;10.07;;;4.47;;
52866;SDS011;38739;53.324;6.862;2023-07-16T07:57:27;11.40;;;4.53;;
52866;SDS011;38739;53.324;6.862;2023-07-16T07:59:53;12.45;;;4.60;;
52866;SDS011;38739;53.324;6.862;2023-07-16T08:02:22;11.98;;;4.95;;
52866;SDS011;38739;53.324;6.862;2023-07-16T08:04:52;11.02;;;4.93;;
52866;SDS011;38739;53.324;6.862;2023-07-16T08:07:20;10.73;;;4.82;;
52866;SDS011;38739;53.324;6.862;2023-07-16T08:09:47;14.57;;;4.70;;
52866;SDS011;38739;53.324;6.862;2023-07-16T08:12:13;10.65;;;4.35;;
52866;SDS011;38739;53.324;6.862;2023-07-16T08:14:39;11.77;;;4.85;;
52866;SDS011;38739;53.324;6.862;2023-07-16T08:17:06;10.00;;;4.63;;
52866;SDS011;38739;53.324;6.862;2023-07-16T08:19:33;10.50;;;4.82;;
52866;SDS011;38739;53.324;6.862;2023-07-16T08:21:58;11.48;;;5.10;;
52866;SDS011;38739;53.324;6.862;2023-07-16T08:24:24;9.38;;;4.82;;
52866;SDS011;38739;53.324;6.862;2023-07-16T08:26:50;12.50;;;4.75;;
52866;SDS011;38739;53.324;6.862;2023-07-16T08:29:16;8.18;;;4.57;;
52866;SDS011;38739;53.324;6.862;2023-07-16T08:31:42;8.63;;;4.93;;
52866;SDS011;38739;53.324;6.862;2023-07-16T08:34:07;9.60;;;4.30;;
52866;SDS011;38739;53.324;6.862;2023-07-16T08:36:33;11.68;;;4.20;;
52866;SDS011;38739;53.324;6.862;2023-07-16T08:38:59;7.95;;;4.47;;
52866;SDS011;38739;53.324;6.862;2023-07-16T08:41:25;11.40;;;5.07;;
52866;SDS011;38739;53.324;6.862;2023-07-16T08:43:51;10.77;;;4.40;;
52866;SDS011;38739;53.324;6.862;2023-07-16T08:46:18;10.25;;;4.40;;
52866;SDS011;38739;53.324;6.862;2023-07-16T08:48:44;10.25;;;4.53;;
52866;SDS011;38739;53.324;6.862;2023-07-16T08:51:10;9.15;;;4.40;;
52866;SDS011;38739;53.324;6.862;2023-07-16T08:53:39;11.43;;;4.80;;
52866;SDS011;38739;53.324;6.862;2023-07-16T08:56:05;11.30;;;4.30;;
52866;SDS011;38739;53.324;6.862;2023-07-16T08:58:31;11.32;;;4.90;;
52866;SDS011;38739;53.324;6.862;2023-07-16T09:00:58;11.88;;;4.65;;
52866;SDS011;38739;53.324;6.862;2023-07-16T09:03:25;13.18;;;4.60;;
52866;SDS011;38739;53.324;6.862;2023-07-16T09:05:51;14.32;;;5.10;;
52866;SDS011;38739;53.324;6.862;2023-07-16T09:08:19;11.80;;;4.97;;
52866;SDS011;38739;53.324;6.862;2023-07-16T09:10:52;9.13;;;4.88;;
52866;SDS011;38739;53.324;6.862;2023-07-16T09:13:19;9.35;;;4.60;;
52866;SDS011;38739;53.324;6.862;2023-07-16T09:15:50;9.95;;;4.45;;
52866;SDS011;38739;53.324;6.862;2023-07-16T09:18:20;12.13;;;4.28;;
52866;SDS011;38739;53.324;6.862;2023-07-16T09:20:47;12.13;;;4.45;;
52866;SDS011;38739;53.324;6.862;2023-07-16T09:23:17;11.05;;;4.20;;
52866;SDS011;38739;53.324;6.862;2023-07-16T09:25:43;10.38;;;4.72;;
52866;SDS011;38739;53.324;6.862;2023-07-16T09:28:09;10.05;;;4.78;;
52866;SDS011;38739;53.324;6.862;2023-07-16T09:30:34;7.97;;;4.00;;
52866;SDS011;38739;53.324;6.862;2023-07-16T09:33:13;11.23;;;4.20;;
52866;SDS011;38739;53.324;6.862;2023-07-16T09:35:40;10.07;;;4.63;;
52866;SDS011;38739;53.324;6.862;2023-07-16T09:38:07;10.93;;;3.95;;
52866;SDS011;38739;53.324;6.862;2023-07-16T09:40:37;10.70;;;4.65;;
52866;SDS011;38739;53.324;6.862;2023-07-16T09:43:04;8.82;;;4.25;;
52866;SDS011;38739;53.324;6.862;2023-07-16T09:45:31;8.93;;;4.32;;
52866;SDS011;38739;53.324;6.862;2023-07-16T09:47:57;9.98;;;4.13;;
52866;SDS011;38739;53.324;6.862;2023-07-16T09:50:23;11.15;;;4.45;;
52866;SDS011;38739;53.324;6.862;2023-07-16T09:52:50;9.07;;;4.20;;
52866;SDS011;38739;53.324;6.862;2023-07-16T09:55:16;8.82;;;4.00;;
52866;SDS011;38739;53.324;6.862;2023-07-16T09:57:46;9.73;;;4.28;;
52866;SDS011;38739;53.324;6.862;2023-07-16T10:00:14;12.68;;;4.45;;
52866;SDS011;38739;53.324;6.862;2023-07-16T10:02:42;10.45;;;4.15;;
52866;SDS011;38739;53.324;6.862;2023-07-16T10:07:43;8.15;;;4.05;;
52866;SDS011;38739;53.324;6.862;2023-07-16T10:10:16;9.45;;;4.15;;
52866;SDS011;38739;53.324;6.862;2023-07-16T10:12:58;9.27;;;3.90;;
52866;SDS011;38739;53.324;6.862;2023-07-16T10:17:53;9.50;;;3.90;;
52866;SDS011;38739;53.324;6.862;2023-07-16T10:22:55;9.02;;;4.18;;
52866;SDS011;38739;53.324;6.862;2023-07-16T10:27:49;9.38;;;4.10;;
52866;SDS011;38739;53.324;6.862;2023-07-16T10:30:15;7.13;;;3.65;;
52866;SDS011;38739;53.324;6.862;2023-07-16T10:32:41;9.80;;;4.05;;
52866;SDS011;38739;53.324;6.862;2023-07-16T10:35:08;9.25;;;4.13;;
52866;SDS011;38739;53.324;6.862;2023-07-16T10:37:34;9.15;;;4.05;;
52866;SDS011;38739;53.324;6.862;2023-07-16T10:40:01;6.80;;;3.88;;
52866;SDS011;38739;53.324;6.862;2023-07-16T10:42:31;7.00;;;3.80;;
52866;SDS011;38739;53.324;6.862;2023-07-16T10:44:58;8.52;;;3.92;;
52866;SDS011;38739;53.324;6.862;2023-07-16T10:47:28;6.95;;;3.38;;
52866;SDS011;38739;53.324;6.862;2023-07-16T10:49:54;5.72;;;3.65;;
52866;SDS011;38739;53.324;6.862;2023-07-16T10:52:20;7.95;;;3.83;;
52866;SDS011;38739;53.324;6.862;2023-07-16T10:54:48;8.38;;;3.80;;
52866;SDS011;38739;53.324;6.862;2023-07-16T10:57:15;9.80;;;4.53;;
52866;SDS011;38739;53.324;6.862;2023-07-16T10:59:42;8.38;;;4.13;;
52866;SDS011;38739;53.324;6.862;2023-07-16T11:02:12;6.47;;;3.80;;
52866;SDS011;38739;53.324;6.862;2023-07-16T11:04:39;7.05;;;3.78;;
52866;SDS011;38739;53.324;6.862;2023-07-16T11:07:08;6.65;;;3.85;;
52866;SDS011;38739;53.324;6.862;2023-07-16T11:09:40;8.75;;;3.75;;
52866;SDS011;38739;53.324;6.862;2023-07-16T11:12:15;9.20;;;3.85;;
52866;SDS011;38739;53.324;6.862;2023-07-16T11:14:43;10.52;;;3.90;;
52866;SDS011;38739;53.324;6.862;2023-07-16T11:17:13;10.77;;;4.20;;
52866;SDS011;38739;53.324;6.862;2023-07-16T11:19:39;12.07;;;4.40;;
52866;SDS011;38739;53.324;6.862;2023-07-16T11:22:08;15.65;;;3.97;;
52866;SDS011;38739;53.324;6.862;2023-07-16T11:24:38;7.07;;;3.88;;
52866;SDS011;38739;53.324;6.862;2023-07-16T11:27:15;13.82;;;4.25;;
52866;SDS011;38739;53.324;6.862;2023-07-16T11:29:48;7.47;;;4.35;;
52866;SDS011;38739;53.324;6.862;2023-07-16T11:37:19;10.82;;;4.07;;
52866;SDS011;38739;53.324;6.862;2023-07-16T11:39:46;11.02;;;4.07;;
52866;SDS011;38739;53.324;6.862;2023-07-16T11:42:13;7.13;;;4.38;;
52866;SDS011;38739;53.324;6.862;2023-07-16T11:44:39;8.20;;;4.57;;
52866;SDS011;38739;53.324;6.862;2023-07-16T11:47:04;7.78;;;3.88;;
52866;SDS011;38739;53.324;6.862;2023-07-16T11:49:30;7.15;;;3.55;;
52866;SDS011;38739;53.324;6.862;2023-07-16T11:51:56;8.80;;;3.95;;
52866;SDS011;38739;53.324;6.862;2023-07-16T11:54:23;10.85;;;3.95;;
52866;SDS011;38739;53.324;6.862;2023-07-16T11:56:49;9.45;;;3.90;;
52866;SDS011;38739;53.324;6.862;2023-07-16T11:59:15;8.68;;;3.63;;
52866;SDS011;38739;53.324;6.862;2023-07-16T12:01:45;6.78;;;3.40;;
52866;SDS011;38739;53.324;6.862;2023-07-16T12:04:13;8.43;;;3.83;;
52866;SDS011;38739;53.324;6.862;2023-07-16T12:06:39;7.85;;;3.58;;
52866;SDS011;38739;53.324;6.862;2023-07-16T12:09:05;8.50;;;3.95;;
52866;SDS011;38739;53.324;6.862;2023-07-16T12:11:31;6.47;;;3.65;;
52866;SDS011;38739;53.324;6.862;2023-07-16T12:13:56;7.93;;;3.60;;
52866;SDS011;38739;53.324;6.862;2023-07-16T12:16:22;9.90;;;3.65;;
52866;SDS011;38739;53.324;6.862;2023-07-16T12:18:48;6.72;;;3.85;;
52866;SDS011;38739;53.324;6.862;2023-07-16T12:21:13;8.52;;;3.80;;
52866;SDS011;38739;53.324;6.862;2023-07-16T12:23:39;8.68;;;4.03;;
52866;SDS011;38739;53.324;6.862;2023-07-16T12:26:05;10.18;;;4.32;;
52866;SDS011;38739;53.324;6.862;2023-07-16T12:28:30;9.25;;;4.38;;
52866;SDS011;38739;53.324;6.862;2023-07-16T12:30:56;11.25;;;4.57;;
52866;SDS011;38739;53.324;6.862;2023-07-16T12:33:22;8.07;;;4.20;;
52866;SDS011;38739;53.324;6.862;2023-07-16T12:35:48;8.60;;;4.00;;
52866;SDS011;38739;53.324;6.862;2023-07-16T12:38:13;7.40;;;4.18;;
52866;SDS011;38739;53.324;6.862;2023-07-16T12:40:39;8.40;;;4.35;;
52866;SDS011;38739;53.324;6.862;2023-07-16T12:43:06;9.43;;;4.40;;
52866;SDS011;38739;53.324;6.862;2023-07-16T12:45:32;11.57;;;4.63;;
52866;SDS011;38739;53.324;6.862;2023-07-16T12:47:58;8.52;;;4.25;;
52866;SDS011;38739;53.324;6.862;2023-07-16T12:50:23;10.38;;;5.00;;
52866;SDS011;38739;53.324;6.862;2023-07-16T12:52:50;8.43;;;4.57;;
52866;SDS011;38739;53.324;6.862;2023-07-16T12:55:17;9.43;;;4.60;;
52866;SDS011;38739;53.324;6.862;2023-07-16T12:57:42;10.27;;;5.43;;
52866;SDS011;38739;53.324;6.862;2023-07-16T13:00:08;9.88;;;5.00;;
52866;SDS011;38739;53.324;6.862;2023-07-16T13:02:36;9.05;;;4.72;;
52866;SDS011;38739;53.324;6.862;2023-07-16T13:05:02;9.52;;;4.60;;
52866;SDS011;38739;53.324;6.862;2023-07-16T13:07:28;10.07;;;4.97;;
52866;SDS011;38739;53.324;6.862;2023-07-16T13:09:55;8.38;;;4.32;;
52866;SDS011;38739;53.324;6.862;2023-07-16T13:12:21;8.80;;;4.07;;
52866;SDS011;38739;53.324;6.862;2023-07-16T13:14:47;7.10;;;4.25;;
52866;SDS011;38739;53.324;6.862;2023-07-16T13:17:12;8.50;;;4.43;;
52866;SDS011;38739;53.324;6.862;2023-07-16T13:19:40;8.55;;;4.18;;
52866;SDS011;38739;53.324;6.862;2023-07-16T13:22:05;9.20;;;4.68;;
52866;SDS011;38739;53.324;6.862;2023-07-16T13:24:31;7.13;;;4.00;;
52866;SDS011;38739;53.324;6.862;2023-07-16T13:26:57;8.30;;;4.18;;
52866;SDS011;38739;53.324;6.862;2023-07-16T13:29:22;8.98;;;4.53;;
52866;SDS011;38739;53.324;6.862;2023-07-16T13:31:48;8.70;;;4.40;;
52866;SDS011;38739;53.324;6.862;2023-07-16T13:34:14;8.10;;;3.97;;
52866;SDS011;38739;53.324;6.862;2023-07-16T13:36:40;7.65;;;4.32;;
52866;SDS011;38739;53.324;6.862;2023-07-16T13:39:05;9.82;;;4.28;;
52866;SDS011;38739;53.324;6.862;2023-07-16T13:41:32;6.90;;;3.92;;
52866;SDS011;38739;53.324;6.862;2023-07-16T13:43:58;8.15;;;4.30;;
52866;SDS011;38739;53.324;6.862;2023-07-16T13:46:23;9.88;;;4.60;;
52866;SDS011;38739;53.324;6.862;2023-07-16T13:48:49;8.43;;;4.30;;
52866;SDS011;38739;53.324;6.862;2023-07-16T13:51:15;8.60;;;3.80;;
52866;SDS011;38739;53.324;6.862;2023-07-16T13:53:40;7.97;;;3.72;;
52866;SDS011;38739;53.324;6.862;2023-07-16T13:56:06;7.88;;;3.92;;
52866;SDS011;38739;53.324;6.862;2023-07-16T13:58:33;9.45;;;3.53;;
52866;SDS011;38739;53.324;6.862;2023-07-16T14:00:59;8.73;;;3.30;;
52866;SDS011;38739;53.324;6.862;2023-07-16T14:03:24;7.97;;;3.53;;
52866;SDS011;38739;53.324;6.862;2023-07-16T14:05:51;10.32;;;3.50;;
52866;SDS011;38739;53.324;6.862;2023-07-16T14:08:17;9.55;;;3.25;;
52866;SDS011;38739;53.324;6.862;2023-07-16T14:10:43;8.02;;;3.50;;
52866;SDS011;38739;53.324;6.862;2023-07-16T14:13:08;8.40;;;3.42;;
52866;SDS011;38739;53.324;6.862;2023-07-16T14:15:34;8.18;;;3.10;;
52866;SDS011;38739;53.324;6.862;2023-07-16T14:18:00;11.70;;;2.92;;
52866;SDS011;38739;53.324;6.862;2023-07-16T14:20:26;10.32;;;2.90;;
52866;SDS011;38739;53.324;6.862;2023-07-16T14:22:52;8.00;;;2.50;;
52866;SDS011;38739;53.324;6.862;2023-07-16T14:25:17;8.75;;;2.53;;
52866;SDS011;38739;53.324;6.862;2023-07-16T14:27:43;8.95;;;2.65;;
52866;SDS011;38739;53.324;6.862;2023-07-16T14:30:09;9.60;;;2.67;;
52866;SDS011;38739;53.324;6.862;2023-07-16T14:32:35;8.60;;;2.85;;
52866;SDS011;38739;53.324;6.862;2023-07-16T14:35:01;13.20;;;2.72;;
52866;SDS011;38739;53.324;6.862;2023-07-16T14:37:28;11.20;;;2.40;;
52866;SDS011;38739;53.324;6.862;2023-07-16T14:39:54;10.70;;;2.20;;
52866;SDS011;38739;53.324;6.862;2023-07-16T14:42:20;10.60;;;2.20;;
52866;SDS011;38739;53.324;6.862;2023-07-16T14:44:46;10.02;;;2.55;;
52866;SDS011;38739;53.324;6.862;2023-07-16T14:47:12;12.55;;;2.55;;
52866;SDS011;38739;53.324;6.862;2023-07-16T14:49:37;7.65;;;1.80;;
52866;SDS011;38739;53.324;6.862;2023-07-16T14:52:03;10.00;;;2.25;;
52866;SDS011;38739;53.324;6.862;2023-07-16T14:54:29;6.70;;;2.10;;
52866;SDS011;38739;53.324;6.862;2023-07-16T14:56:55;9.95;;;2.10;;